sensor_id;sensor_type;location;lat;lon;timestamp;P1;durP1;ratioP1;P2;durP2;ratioP2
15381;SDS011;7789;51.364;12.358;2023-09-19T00:02:37;2.22;;;1.30;;
15381;SDS011;7789;51.364;12.358;2023-09-19T00:07:45;1.65;;;1.38;;
15381;SDS011;7789;51.364;12.358;2023-09-19T00:13:02;3.22;;;1.00;;
15381;SDS011;7789;51.364;12.358;2023-09-19T00:18:09;2.15;;;1.17;;
15381;SDS011;7789;51.364;12.358;2023-09-19T00:23:22;2.83;;;1.25;;
15381;SDS011;7789;51.364;12.358;2023-09-19T00:28:29;1.58;;;1.20;;
15381;SDS011;7789;51.364;12.358;2023-09-19T00:33:46;2.70;;;1.67;;
15381;SDS011;7789;51.364;12.358;2023-09-19T00:38:52;3.08;;;1.40;;
15381;SDS011;7789;51.364;12.358;2023-09-19T00:43:59;4.55;;;1.50;;
15381;SDS011;7789;51.364;12.358;2023-09-19T00:49:04;3.70;;;1.42;;
15381;SDS011;7789;51.364;12.358;2023-09-19T00:59:34;2.75;;;1.30;;
15381;SDS011;7789;51.364;12.358;2023-09-19T01:04:38;3.55;;;1.60;;
15381;SDS011;7789;51.364;12.358;2023-09-19T01:09:49;3.05;;;1.40;;
15381;SDS011;7789;51.364;12.358;2023-09-19T01:15:11;1.90;;;1.13;;
15381;SDS011;7789;51.364;12.358;2023-09-19T01:20:27;2.60;;;1.60;;
15381;SDS011;7789;51.364;12.358;2023-09-19T01:25:57;4.03;;;1.50;;
15381;SDS011;7789;51.364;12.358;2023-09-19T01:31:25;1.80;;;1.38;;
15381;SDS011;7789;51.364;12.358;2023-09-19T01:36:38;2.10;;;1.60;;
15381;SDS011;7789;51.364;12.358;2023-09-19T01:47:23;3.55;;;1.58;;
15381;SDS011;7789;51.364;12.358;2023-09-19T01:52:32;2.67;;;1.63;;
15381;SDS011;7789;51.364;12.358;2023-09-19T01:57:48;2.30;;;1.27;;
15381;SDS011;7789;51.364;12.358;2023-09-19T02:03:02;2.08;;;1.27;;
15381;SDS011;7789;51.364;12.358;2023-09-19T02:08:08;3.20;;;1.17;;
15381;SDS011;7789;51.364;12.358;2023-09-19T02:13:19;2.42;;;1.20;;
15381;SDS011;7789;51.364;12.358;2023-09-19T02:18:32;2.33;;;1.20;;
15381;SDS011;7789;51.364;12.358;2023-09-19T02:23:38;1.98;;;1.13;;
15381;SDS011;7789;51.364;12.358;2023-09-19T02:28:45;2.08;;;0.82;;
15381;SDS011;7789;51.364;12.358;2023-09-19T02:33:52;1.90;;;1.10;;
15381;SDS011;7789;51.364;12.358;2023-09-19T02:38:58;1.85;;;1.17;;
15381;SDS011;7789;51.364;12.358;2023-09-19T02:44:03;2.88;;;0.95;;
15381;SDS011;7789;51.364;12.358;2023-09-19T02:49:11;1.75;;;1.13;;
15381;SDS011;7789;51.364;12.358;2023-09-19T02:54:16;4.75;;;1.10;;
15381;SDS011;7789;51.364;12.358;2023-09-19T02:59:23;1.77;;;0.95;;
15381;SDS011;7789;51.364;12.358;2023-09-19T03:04:36;4.20;;;0.90;;
15381;SDS011;7789;51.364;12.358;2023-09-19T03:09:42;1.45;;;1.23;;
15381;SDS011;7789;51.364;12.358;2023-09-19T03:14:49;1.75;;;0.95;;
15381;SDS011;7789;51.364;12.358;2023-09-19T03:19:56;2.13;;;1.00;;
15381;SDS011;7789;51.364;12.358;2023-09-19T03:25:01;1.40;;;0.80;;
15381;SDS011;7789;51.364;12.358;2023-09-19T03:30:06;1.67;;;0.80;;
15381;SDS011;7789;51.364;12.358;2023-09-19T03:35:17;1.30;;;0.93;;
15381;SDS011;7789;51.364;12.358;2023-09-19T03:40:30;1.83;;;1.10;;
15381;SDS011;7789;51.364;12.358;2023-09-19T03:45:34;1.58;;;1.00;;
15381;SDS011;7789;51.364;12.358;2023-09-19T03:50:44;2.33;;;0.90;;
15381;SDS011;7789;51.364;12.358;2023-09-19T03:55:52;2.17;;;0.95;;
15381;SDS011;7789;51.364;12.358;2023-09-19T04:00:58;1.00;;;0.90;;
15381;SDS011;7789;51.364;12.358;2023-09-19T04:06:06;2.05;;;0.90;;
15381;SDS011;7789;51.364;12.358;2023-09-19T04:11:11;1.90;;;1.15;;
15381;SDS011;7789;51.364;12.358;2023-09-19T04:16:17;2.47;;;1.08;;
15381;SDS011;7789;51.364;12.358;2023-09-19T04:21:36;2.85;;;0.90;;
15381;SDS011;7789;51.364;12.358;2023-09-19T04:26:53;2.15;;;1.05;;
15381;SDS011;7789;51.364;12.358;2023-09-19T04:31:57;1.98;;;0.98;;
15381;SDS011;7789;51.364;12.358;2023-09-19T04:37:03;1.65;;;1.23;;
15381;SDS011;7789;51.364;12.358;2023-09-19T04:42:12;1.45;;;0.90;;
15381;SDS011;7789;51.364;12.358;2023-09-19T04:47:19;1.25;;;0.68;;
15381;SDS011;7789;51.364;12.358;2023-09-19T04:52:26;2.42;;;0.95;;
15381;SDS011;7789;51.364;12.358;2023-09-19T04:57:31;2.15;;;1.00;;
15381;SDS011;7789;51.364;12.358;2023-09-19T05:02:38;2.22;;;1.17;;
15381;SDS011;7789;51.364;12.358;2023-09-19T05:07:57;1.65;;;1.30;;
15381;SDS011;7789;51.364;12.358;2023-09-19T05:13:08;1.80;;;1.15;;
15381;SDS011;7789;51.364;12.358;2023-09-19T05:18:17;1.10;;;0.90;;
15381;SDS011;7789;51.364;12.358;2023-09-19T05:23:25;2.85;;;1.13;;
15381;SDS011;7789;51.364;12.358;2023-09-19T05:28:30;3.33;;;2.50;;
15381;SDS011;7789;51.364;12.358;2023-09-19T05:33:37;2.80;;;1.27;;
15381;SDS011;7789;51.364;12.358;2023-09-19T05:38:52;2.17;;;0.93;;
15381;SDS011;7789;51.364;12.358;2023-09-19T05:44:07;2.75;;;1.15;;
15381;SDS011;7789;51.364;12.358;2023-09-19T05:49:18;3.63;;;0.95;;
15381;SDS011;7789;51.364;12.358;2023-09-19T05:54:29;1.45;;;1.23;;
15381;SDS011;7789;51.364;12.358;2023-09-19T05:59:35;5.40;;;1.25;;
15381;SDS011;7789;51.364;12.358;2023-09-19T06:04:47;2.20;;;1.00;;
15381;SDS011;7789;51.364;12.358;2023-09-19T06:09:55;1.85;;;1.00;;
15381;SDS011;7789;51.364;12.358;2023-09-19T06:15:02;1.80;;;1.20;;
15381;SDS011;7789;51.364;12.358;2023-09-19T06:20:11;2.45;;;1.10;;
15381;SDS011;7789;51.364;12.358;2023-09-19T06:25:19;1.48;;;1.10;;
15381;SDS011;7789;51.364;12.358;2023-09-19T06:30:24;1.38;;;1.23;;
15381;SDS011;7789;51.364;12.358;2023-09-19T06:35:31;1.38;;;1.05;;
15381;SDS011;7789;51.364;12.358;2023-09-19T06:40:38;0.98;;;0.80;;
15381;SDS011;7789;51.364;12.358;2023-09-19T06:45:45;3.53;;;1.23;;
15381;SDS011;7789;51.364;12.358;2023-09-19T06:50:53;1.58;;;1.13;;
15381;SDS011;7789;51.364;12.358;2023-09-19T06:56:11;2.30;;;1.05;;
15381;SDS011;7789;51.364;12.358;2023-09-19T07:01:20;1.83;;;1.20;;
15381;SDS011;7789;51.364;12.358;2023-09-19T07:06:26;2.78;;;1.00;;
15381;SDS011;7789;51.364;12.358;2023-09-19T07:11:35;3.33;;;1.20;;
15381;SDS011;7789;51.364;12.358;2023-09-19T07:16:45;2.28;;;1.02;;
15381;SDS011;7789;51.364;12.358;2023-09-19T07:22:01;3.00;;;1.30;;
15381;SDS011;7789;51.364;12.358;2023-09-19T07:27:08;4.65;;;1.05;;
15381;SDS011;7789;51.364;12.358;2023-09-19T07:32:13;2.92;;;1.10;;
15381;SDS011;7789;51.364;12.358;2023-09-19T07:37:23;8.05;;;1.50;;
15381;SDS011;7789;51.364;12.358;2023-09-19T07:42:29;3.03;;;1.30;;
15381;SDS011;7789;51.364;12.358;2023-09-19T07:47:34;2.97;;;1.15;;
15381;SDS011;7789;51.364;12.358;2023-09-19T07:52:40;4.50;;;1.02;;
15381;SDS011;7789;51.364;12.358;2023-09-19T07:57:47;3.45;;;1.30;;
15381;SDS011;7789;51.364;12.358;2023-09-19T08:02:54;2.45;;;1.17;;
15381;SDS011;7789;51.364;12.358;2023-09-19T08:08:08;1.75;;;0.88;;
15381;SDS011;7789;51.364;12.358;2023-09-19T08:13:23;4.72;;;1.38;;
15381;SDS011;7789;51.364;12.358;2023-09-19T08:18:29;2.83;;;1.02;;
15381;SDS011;7789;51.364;12.358;2023-09-19T08:23:38;7.68;;;1.20;;
15381;SDS011;7789;51.364;12.358;2023-09-19T08:28:47;1.65;;;0.98;;
15381;SDS011;7789;51.364;12.358;2023-09-19T08:33:54;3.92;;;0.95;;
15381;SDS011;7789;51.364;12.358;2023-09-19T08:38:59;3.65;;;1.20;;
15381;SDS011;7789;51.364;12.358;2023-09-19T08:44:05;3.78;;;1.20;;
15381;SDS011;7789;51.364;12.358;2023-09-19T08:49:15;3.38;;;1.80;;
15381;SDS011;7789;51.364;12.358;2023-09-19T08:54:33;2.65;;;1.20;;
15381;SDS011;7789;51.364;12.358;2023-09-19T08:59:47;2.97;;;1.33;;
15381;SDS011;7789;51.364;12.358;2023-09-19T09:04:53;3.58;;;1.10;;
15381;SDS011;7789;51.364;12.358;2023-09-19T09:10:02;2.78;;;1.02;;
15381;SDS011;7789;51.364;12.358;2023-09-19T09:15:19;5.82;;;1.20;;
15381;SDS011;7789;51.364;12.358;2023-09-19T09:20:26;2.90;;;1.23;;
15381;SDS011;7789;51.364;12.358;2023-09-19T09:25:48;3.60;;;1.20;;
15381;SDS011;7789;51.364;12.358;2023-09-19T09:36:36;3.55;;;1.30;;
15381;SDS011;7789;51.364;12.358;2023-09-19T09:41:54;2.28;;;1.00;;
15381;SDS011;7789;51.364;12.358;2023-09-19T09:47:04;4.03;;;1.00;;
15381;SDS011;7789;51.364;12.358;2023-09-19T09:52:27;2.88;;;1.30;;
15381;SDS011;7789;51.364;12.358;2023-09-19T09:57:36;2.40;;;1.10;;
15381;SDS011;7789;51.364;12.358;2023-09-19T10:02:49;5.15;;;1.60;;
15381;SDS011;7789;51.364;12.358;2023-09-19T10:07:55;3.20;;;1.50;;
15381;SDS011;7789;51.364;12.358;2023-09-19T10:13:24;5.32;;;1.70;;
15381;SDS011;7789;51.364;12.358;2023-09-19T10:18:44;2.90;;;1.33;;
15381;SDS011;7789;51.364;12.358;2023-09-19T10:23:53;1.10;;;0.98;;
15381;SDS011;7789;51.364;12.358;2023-09-19T10:29:00;3.78;;;1.20;;
15381;SDS011;7789;51.364;12.358;2023-09-19T10:34:07;1.73;;;1.15;;
15381;SDS011;7789;51.364;12.358;2023-09-19T10:39:14;4.32;;;1.52;;
15381;SDS011;7789;51.364;12.358;2023-09-19T10:44:40;4.13;;;1.58;;
15381;SDS011;7789;51.364;12.358;2023-09-19T10:49:50;2.30;;;1.30;;
15381;SDS011;7789;51.364;12.358;2023-09-19T10:54:58;2.80;;;1.50;;
15381;SDS011;7789;51.364;12.358;2023-09-19T11:00:04;2.40;;;1.20;;
15381;SDS011;7789;51.364;12.358;2023-09-19T11:05:35;2.92;;;1.40;;
15381;SDS011;7789;51.364;12.358;2023-09-19T11:10:45;2.53;;;1.25;;
15381;SDS011;7789;51.364;12.358;2023-09-19T11:27:11;3.92;;;1.60;;
15381;SDS011;7789;51.364;12.358;2023-09-19T11:32:20;2.90;;;1.30;;
15381;SDS011;7789;51.364;12.358;2023-09-19T11:38:04;3.25;;;1.60;;
15381;SDS011;7789;51.364;12.358;2023-09-19T11:43:32;2.85;;;1.33;;
15381;SDS011;7789;51.364;12.358;2023-09-19T11:48:40;2.85;;;1.40;;
15381;SDS011;7789;51.364;12.358;2023-09-19T11:53:47;4.10;;;1.52;;
15381;SDS011;7789;51.364;12.358;2023-09-19T11:58:51;2.97;;;1.38;;
15381;SDS011;7789;51.364;12.358;2023-09-19T12:03:57;3.63;;;1.33;;
15381;SDS011;7789;51.364;12.358;2023-09-19T12:09:03;5.55;;;1.73;;
15381;SDS011;7789;51.364;12.358;2023-09-19T12:14:21;2.72;;;1.42;;
15381;SDS011;7789;51.364;12.358;2023-09-19T12:19:26;3.25;;;1.45;;
15381;SDS011;7789;51.364;12.358;2023-09-19T12:24:32;4.50;;;1.73;;
15381;SDS011;7789;51.364;12.358;2023-09-19T12:29:43;2.58;;;1.40;;
15381;SDS011;7789;51.364;12.358;2023-09-19T12:34:50;4.13;;;1.92;;
15381;SDS011;7789;51.364;12.358;2023-09-19T12:40:04;3.17;;;1.58;;
15381;SDS011;7789;51.364;12.358;2023-09-19T12:45:19;2.80;;;1.55;;
15381;SDS011;7789;51.364;12.358;2023-09-19T12:50:23;4.25;;;1.98;;
15381;SDS011;7789;51.364;12.358;2023-09-19T12:55:32;2.72;;;1.85;;
15381;SDS011;7789;51.364;12.358;2023-09-19T13:00:38;4.90;;;1.55;;
15381;SDS011;7789;51.364;12.358;2023-09-19T13:05:49;2.88;;;1.67;;
15381;SDS011;7789;51.364;12.358;2023-09-19T13:11:09;3.10;;;1.38;;
15381;SDS011;7789;51.364;12.358;2023-09-19T13:16:14;3.80;;;2.10;;
15381;SDS011;7789;51.364;12.358;2023-09-19T13:21:27;2.25;;;1.90;;
15381;SDS011;7789;51.364;12.358;2023-09-19T13:26:36;2.60;;;1.75;;
15381;SDS011;7789;51.364;12.358;2023-09-19T13:31:41;4.57;;;1.73;;
15381;SDS011;7789;51.364;12.358;2023-09-19T13:36:45;5.15;;;1.50;;
15381;SDS011;7789;51.364;12.358;2023-09-19T13:41:51;5.63;;;1.90;;
15381;SDS011;7789;51.364;12.358;2023-09-19T13:46:54;3.85;;;2.10;;
15381;SDS011;7789;51.364;12.358;2023-09-19T13:51:58;2.75;;;1.35;;
15381;SDS011;7789;51.364;12.358;2023-09-19T13:57:06;2.60;;;1.73;;
15381;SDS011;7789;51.364;12.358;2023-09-19T14:02:11;1.80;;;1.45;;
15381;SDS011;7789;51.364;12.358;2023-09-19T14:07:16;2.95;;;1.88;;
15381;SDS011;7789;51.364;12.358;2023-09-19T14:12:22;3.78;;;1.77;;
15381;SDS011;7789;51.364;12.358;2023-09-19T14:17:25;6.65;;;2.40;;
15381;SDS011;7789;51.364;12.358;2023-09-19T14:22:30;4.55;;;1.60;;
15381;SDS011;7789;51.364;12.358;2023-09-19T14:27:36;3.67;;;1.70;;
15381;SDS011;7789;51.364;12.358;2023-09-19T14:32:40;4.82;;;2.00;;
15381;SDS011;7789;51.364;12.358;2023-09-19T14:37:43;3.30;;;1.92;;
15381;SDS011;7789;51.364;12.358;2023-09-19T14:42:48;4.57;;;2.00;;
15381;SDS011;7789;51.364;12.358;2023-09-19T14:47:53;4.30;;;1.90;;
15381;SDS011;7789;51.364;12.358;2023-09-19T14:52:59;3.15;;;1.95;;
15381;SDS011;7789;51.364;12.358;2023-09-19T14:58:05;4.07;;;2.00;;
15381;SDS011;7789;51.364;12.358;2023-09-19T15:03:09;4.45;;;2.03;;
15381;SDS011;7789;51.364;12.358;2023-09-19T15:08:13;1.80;;;1.70;;
15381;SDS011;7789;51.364;12.358;2023-09-19T15:13:18;7.38;;;2.10;;
15381;SDS011;7789;51.364;12.358;2023-09-19T15:18:22;3.25;;;1.98;;
15381;SDS011;7789;51.364;12.358;2023-09-19T15:23:25;3.60;;;2.30;;
15381;SDS011;7789;51.364;12.358;2023-09-19T15:28:34;4.05;;;2.17;;
15381;SDS011;7789;51.364;12.358;2023-09-19T15:33:38;2.97;;;2.10;;
15381;SDS011;7789;51.364;12.358;2023-09-19T15:38:55;3.58;;;2.03;;
15381;SDS011;7789;51.364;12.358;2023-09-19T15:44:04;6.25;;;1.95;;
15381;SDS011;7789;51.364;12.358;2023-09-19T15:49:22;5.35;;;2.40;;
15381;SDS011;7789;51.364;12.358;2023-09-19T15:54:29;3.33;;;2.25;;
15381;SDS011;7789;51.364;12.358;2023-09-19T15:59:36;4.32;;;2.05;;
15381;SDS011;7789;51.364;12.358;2023-09-19T16:04:39;2.95;;;2.08;;
15381;SDS011;7789;51.364;12.358;2023-09-19T16:09:45;3.33;;;2.13;;
15381;SDS011;7789;51.364;12.358;2023-09-19T16:14:50;5.80;;;2.08;;
15381;SDS011;7789;51.364;12.358;2023-09-19T16:19:53;4.22;;;2.15;;
15381;SDS011;7789;51.364;12.358;2023-09-19T16:24:56;6.05;;;2.03;;
15381;SDS011;7789;51.364;12.358;2023-09-19T16:30:01;4.15;;;1.95;;
15381;SDS011;7789;51.364;12.358;2023-09-19T16:35:05;2.95;;;1.58;;
15381;SDS011;7789;51.364;12.358;2023-09-19T16:40:10;3.47;;;2.00;;
15381;SDS011;7789;51.364;12.358;2023-09-19T16:45:15;3.45;;;2.03;;
15381;SDS011;7789;51.364;12.358;2023-09-19T16:50:19;4.10;;;2.28;;
15381;SDS011;7789;51.364;12.358;2023-09-19T16:55:23;5.10;;;2.20;;
15381;SDS011;7789;51.364;12.358;2023-09-19T17:00:28;2.78;;;1.90;;
15381;SDS011;7789;51.364;12.358;2023-09-19T17:05:32;4.15;;;2.08;;
15381;SDS011;7789;51.364;12.358;2023-09-19T17:10:41;2.97;;;2.15;;
15381;SDS011;7789;51.364;12.358;2023-09-19T17:15:59;4.13;;;2.17;;
15381;SDS011;7789;51.364;12.358;2023-09-19T17:21:07;3.70;;;2.42;;
15381;SDS011;7789;51.364;12.358;2023-09-19T17:26:28;3.75;;;2.20;;
15381;SDS011;7789;51.364;12.358;2023-09-19T17:31:41;4.82;;;2.03;;
15381;SDS011;7789;51.364;12.358;2023-09-19T17:36:51;5.32;;;2.22;;
15381;SDS011;7789;51.364;12.358;2023-09-19T17:41:57;3.65;;;2.10;;
15381;SDS011;7789;51.364;12.358;2023-09-19T17:47:12;3.65;;;2.00;;
15381;SDS011;7789;51.364;12.358;2023-09-19T17:52:21;3.60;;;1.95;;
15381;SDS011;7789;51.364;12.358;2023-09-19T17:57:29;2.78;;;2.13;;
15381;SDS011;7789;51.364;12.358;2023-09-19T18:02:38;5.15;;;2.10;;
15381;SDS011;7789;51.364;12.358;2023-09-19T18:07:46;5.78;;;2.40;;
15381;SDS011;7789;51.364;12.358;2023-09-19T18:12:54;5.45;;;2.08;;
15381;SDS011;7789;51.364;12.358;2023-09-19T18:18:08;4.57;;;2.42;;
15381;SDS011;7789;51.364;12.358;2023-09-19T18:23:17;3.33;;;2.00;;
15381;SDS011;7789;51.364;12.358;2023-09-19T18:28:23;5.20;;;2.15;;
15381;SDS011;7789;51.364;12.358;2023-09-19T18:33:32;4.18;;;2.35;;
15381;SDS011;7789;51.364;12.358;2023-09-19T18:38:43;3.67;;;2.30;;
15381;SDS011;7789;51.364;12.358;2023-09-19T18:43:49;4.38;;;1.90;;
15381;SDS011;7789;51.364;12.358;2023-09-19T18:48:57;3.53;;;2.40;;
15381;SDS011;7789;51.364;12.358;2023-09-19T18:54:06;4.47;;;2.03;;
15381;SDS011;7789;51.364;12.358;2023-09-19T18:59:15;5.20;;;2.67;;
15381;SDS011;7789;51.364;12.358;2023-09-19T19:04:30;5.72;;;2.70;;
15381;SDS011;7789;51.364;12.358;2023-09-19T19:09:35;3.55;;;2.22;;
15381;SDS011;7789;51.364;12.358;2023-09-19T19:14:44;4.40;;;2.20;;
15381;SDS011;7789;51.364;12.358;2023-09-19T19:20:04;3.85;;;1.70;;
15381;SDS011;7789;51.364;12.358;2023-09-19T19:25:13;3.85;;;1.80;;
15381;SDS011;7789;51.364;12.358;2023-09-19T19:30:21;5.63;;;1.65;;
15381;SDS011;7789;51.364;12.358;2023-09-19T19:35:30;5.90;;;2.10;;
15381;SDS011;7789;51.364;12.358;2023-09-19T19:40:36;4.68;;;2.20;;
15381;SDS011;7789;51.364;12.358;2023-09-19T19:45:52;5.13;;;2.83;;
15381;SDS011;7789;51.364;12.358;2023-09-19T19:51:06;5.70;;;2.30;;
15381;SDS011;7789;51.364;12.358;2023-09-19T19:56:13;4.45;;;2.22;;
15381;SDS011;7789;51.364;12.358;2023-09-19T20:01:24;5.03;;;2.20;;
15381;SDS011;7789;51.364;12.358;2023-09-19T20:06:31;3.28;;;1.80;;
15381;SDS011;7789;51.364;12.358;2023-09-19T20:11:39;4.63;;;2.22;;
15381;SDS011;7789;51.364;12.358;2023-09-19T20:16:45;3.30;;;1.73;;
15381;SDS011;7789;51.364;12.358;2023-09-19T20:21:52;3.53;;;1.80;;
15381;SDS011;7789;51.364;12.358;2023-09-19T20:27:01;4.65;;;1.80;;
15381;SDS011;7789;51.364;12.358;2023-09-19T20:32:09;5.13;;;1.88;;
15381;SDS011;7789;51.364;12.358;2023-09-19T20:37:17;4.50;;;2.90;;
15381;SDS011;7789;51.364;12.358;2023-09-19T20:42:27;4.38;;;1.77;;
15381;SDS011;7789;51.364;12.358;2023-09-19T20:47:36;3.92;;;1.92;;
15381;SDS011;7789;51.364;12.358;2023-09-19T20:52:46;3.33;;;1.77;;
15381;SDS011;7789;51.364;12.358;2023-09-19T20:57:58;4.00;;;2.10;;
15381;SDS011;7789;51.364;12.358;2023-09-19T21:03:04;4.95;;;2.20;;
15381;SDS011;7789;51.364;12.358;2023-09-19T21:08:20;4.43;;;2.38;;
15381;SDS011;7789;51.364;12.358;2023-09-19T21:13:24;5.05;;;2.20;;
15381;SDS011;7789;51.364;12.358;2023-09-19T21:18:30;6.00;;;2.00;;
15381;SDS011;7789;51.364;12.358;2023-09-19T21:23:38;3.65;;;1.90;;
15381;SDS011;7789;51.364;12.358;2023-09-19T21:28:45;4.57;;;1.75;;
15381;SDS011;7789;51.364;12.358;2023-09-19T21:33:54;4.00;;;1.42;;
15381;SDS011;7789;51.364;12.358;2023-09-19T21:39:07;4.55;;;1.80;;
15381;SDS011;7789;51.364;12.358;2023-09-19T21:44:26;3.20;;;2.15;;
15381;SDS011;7789;51.364;12.358;2023-09-19T21:49:41;3.67;;;1.90;;
15381;SDS011;7789;51.364;12.358;2023-09-19T21:54:53;7.38;;;2.20;;
15381;SDS011;7789;51.364;12.358;2023-09-19T22:00:00;6.13;;;1.83;;
15381;SDS011;7789;51.364;12.358;2023-09-19T22:05:05;5.88;;;1.83;;
15381;SDS011;7789;51.364;12.358;2023-09-19T22:10:14;3.88;;;1.77;;
15381;SDS011;7789;51.364;12.358;2023-09-19T22:15:18;4.32;;;1.90;;
15381;SDS011;7789;51.364;12.358;2023-09-19T22:20:24;4.18;;;1.88;;
15381;SDS011;7789;51.364;12.358;2023-09-19T22:25:36;5.30;;;2.15;;
15381;SDS011;7789;51.364;12.358;2023-09-19T22:30:43;6.25;;;1.52;;
15381;SDS011;7789;51.364;12.358;2023-09-19T22:35:49;3.65;;;1.90;;
15381;SDS011;7789;51.364;12.358;2023-09-19T22:41:08;3.70;;;1.73;;
15381;SDS011;7789;51.364;12.358;2023-09-19T22:46:16;3.35;;;1.90;;
15381;SDS011;7789;51.364;12.358;2023-09-19T22:51:21;5.18;;;1.48;;
15381;SDS011;7789;51.364;12.358;2023-09-19T22:56:32;3.30;;;1.70;;
15381;SDS011;7789;51.364;12.358;2023-09-19T23:01:37;5.40;;;1.90;;
15381;SDS011;7789;51.364;12.358;2023-09-19T23:06:44;2.70;;;1.60;;
15381;SDS011;7789;51.364;12.358;2023-09-19T23:11:56;3.03;;;1.48;;
15381;SDS011;7789;51.364;12.358;2023-09-19T23:17:11;3.13;;;1.52;;
15381;SDS011;7789;51.364;12.358;2023-09-19T23:22:17;3.10;;;1.45;;
15381;SDS011;7789;51.364;12.358;2023-09-19T23:27:29;3.03;;;1.60;;
15381;SDS011;7789;51.364;12.358;2023-09-19T23:32:37;4.00;;;1.77;;
15381;SDS011;7789;51.364;12.358;2023-09-19T23:37:51;2.67;;;1.33;;
15381;SDS011;7789;51.364;12.358;2023-09-19T23:42:58;3.20;;;1.40;;
15381;SDS011;7789;51.364;12.358;2023-09-19T23:48:03;3.50;;;1.60;;
15381;SDS011;7789;51.364;12.358;2023-09-19T23:53:11;2.78;;;1.58;;
15381;SDS011;7789;51.364;12.358;2023-09-19T23:58:19;4.30;;;1.73;;
